GEOFB HTDA-FMCH
Flight info
| Callsign | GEOFB |
|---|---|
| Flight time | N/A |
| Altitude | 39000 |
| Route | DUDNA1D KISIR UA401 KINAN KINAN1V |
| Aircraft | C750/M-SBDE3FGHRWXY/S |
Departure
| Time | N/A |
|---|---|
| Airport | Julius Nyerere International Airport (HTDA) |
Arrival
| Time | 2026-05-04 17:39 |
|---|---|
| Airport | Prince Said Ibrahim International Airport (FMCH) |
| Time | Latitude | Longitude | Altitude | Speed | Heading |
|---|---|---|---|---|---|
| 2026-05-04 17:00 | -7.66840 | 39.36300 | 23456 ft | 421 kts | 119° |
| 2026-05-04 17:00 | -7.71240 | 39.44127 | 25261 ft | 434 kts | 119° |
| 2026-05-04 17:01 | -7.74236 | 39.49467 | 26462 ft | 441 kts | 119° |
| 2026-05-04 17:01 | -7.77284 | 39.54892 | 27584 ft | 448 kts | 119° |
| 2026-05-04 17:02 | -7.80352 | 39.60362 | 28650 ft | 456 kts | 119° |
| 2026-05-04 17:02 | -7.83497 | 39.65968 | 29678 ft | 462 kts | 119° |
| 2026-05-04 17:03 | -7.85085 | 39.68799 | 30135 ft | 465 kts | 119° |
| 2026-05-04 17:03 | -7.86678 | 39.71642 | 30587 ft | 469 kts | 118° |
| 2026-05-04 17:03 | -7.89898 | 39.77387 | 31697 ft | 468 kts | 118° |
| 2026-05-04 17:04 | -7.93074 | 39.83055 | 32879 ft | 466 kts | 118° |
| 2026-05-04 17:04 | -7.96252 | 39.88731 | 34079 ft | 463 kts | 118° |
| 2026-05-04 17:05 | -7.99408 | 39.94367 | 35201 ft | 461 kts | 118° |
| 2026-05-04 17:05 | -8.02550 | 39.99982 | 36320 ft | 458 kts | 118° |
| 2026-05-04 17:06 | -8.05683 | 40.05583 | 37345 ft | 457 kts | 118° |
| 2026-05-04 17:06 | -8.07219 | 40.08331 | 37850 ft | 457 kts | 118° |
| 2026-05-04 17:07 | -8.10342 | 40.13916 | 38850 ft | 456 kts | 118° |
| 2026-05-04 17:07 | -8.11370 | 40.15756 | 38995 ft | 460 kts | 118° |
| 2026-05-04 17:07 | -8.13515 | 40.19598 | 38990 ft | 476 kts | 118° |
| 2026-05-04 17:07 | -8.15156 | 40.22536 | 38992 ft | 486 kts | 118° |
| 2026-05-04 17:08 | -8.21836 | 40.30561 | 39002 ft | 517 kts | 139° |
| 2026-05-04 17:09 | -8.36558 | 40.42699 | 39005 ft | 519 kts | 140° |
| 2026-05-04 17:09 | -8.58811 | 40.61330 | 38993 ft | 520 kts | 139° |
| 2026-05-04 17:10 | -9.04478 | 40.99681 | 38991 ft | 519 kts | 139° |
| 2026-05-04 17:11 | -9.15499 | 41.08958 | 38993 ft | 519 kts | 139° |
| 2026-05-04 17:12 | -9.32128 | 41.22974 | 38994 ft | 519 kts | 139° |
| 2026-05-04 17:13 | -9.59905 | 41.46424 | 38998 ft | 521 kts | 139° |
| 2026-05-04 17:14 | -9.82092 | 41.65195 | 38994 ft | 522 kts | 139° |
| 2026-05-04 17:15 | -9.98800 | 41.79348 | 38982 ft | 522 kts | 139° |
| 2026-05-04 17:16 | -10.21022 | 41.98209 | 38985 ft | 522 kts | 139° |
| 2026-05-04 17:17 | -10.43306 | 42.17157 | 38986 ft | 523 kts | 139° |
| 2026-05-04 17:17 | -10.59943 | 42.31326 | 38978 ft | 504 kts | 139° |
| 2026-05-04 17:18 | -10.64658 | 42.35341 | 38622 ft | 457 kts | 139° |
| 2026-05-04 17:18 | -10.69525 | 42.39500 | 36136 ft | 459 kts | 139° |
| 2026-05-04 17:19 | -10.74444 | 42.43633 | 33301 ft | 460 kts | 142° |
| 2026-05-04 17:19 | -10.79898 | 42.47126 | 29926 ft | 465 kts | 148° |
| 2026-05-04 17:20 | -10.85260 | 42.50511 | 27393 ft | 446 kts | 147° |
| 2026-05-04 17:20 | -10.90420 | 42.53807 | 24768 ft | 429 kts | 147° |
| 2026-05-04 17:20 | -10.92937 | 42.55388 | 23473 ft | 421 kts | 147° |
| 2026-05-04 17:21 | -10.97837 | 42.58513 | 21906 ft | 412 kts | 146° |
| 2026-05-04 17:21 | -11.02682 | 42.61586 | 20838 ft | 406 kts | 146° |
| 2026-05-04 17:22 | -11.05034 | 42.63081 | 20310 ft | 402 kts | 146° |
| 2026-05-04 17:22 | -11.07393 | 42.64584 | 19775 ft | 399 kts | 146° |
| 2026-05-04 17:23 | -11.14374 | 42.69022 | 18228 ft | 390 kts | 146° |
| 2026-05-04 17:23 | -11.16666 | 42.70483 | 17711 ft | 387 kts | 146° |
| 2026-05-04 17:23 | -11.21202 | 42.73370 | 16690 ft | 382 kts | 146° |
| 2026-05-04 17:24 | -11.23414 | 42.74777 | 16181 ft | 380 kts | 146° |
| 2026-05-04 17:24 | -11.30072 | 42.79018 | 14683 ft | 373 kts | 146° |
| 2026-05-04 17:25 | -11.32266 | 42.80416 | 14190 ft | 371 kts | 146° |
| 2026-05-04 17:25 | -11.36616 | 42.83188 | 13209 ft | 366 kts | 146° |
| 2026-05-04 17:26 | -11.40885 | 42.85910 | 12247 ft | 362 kts | 146° |
| 2026-05-04 17:26 | -11.47156 | 42.89906 | 10831 ft | 331 kts | 146° |
| 2026-05-04 17:27 | -11.50827 | 42.92249 | 10006 ft | 294 kts | 146° |
| 2026-05-04 17:27 | -11.54202 | 42.94406 | 9279 ft | 283 kts | 146° |
| 2026-05-04 17:28 | -11.57506 | 42.96516 | 8593 ft | 282 kts | 146° |
| 2026-05-04 17:29 | -11.62463 | 42.99677 | 7558 ft | 278 kts | 146° |
| 2026-05-04 17:29 | -11.67324 | 43.02787 | 6544 ft | 272 kts | 147° |
| 2026-05-04 17:30 | -11.72074 | 43.05823 | 5490 ft | 268 kts | 147° |
| 2026-05-04 17:31 | -11.74897 | 43.08145 | 4730 ft | 250 kts | 122° |
| 2026-05-04 17:31 | -11.75954 | 43.12605 | 4181 ft | 204 kts | 102° |
| 2026-05-04 17:32 | -11.76464 | 43.15480 | 3846 ft | 210 kts | 101° |
| 2026-05-04 17:33 | -11.77231 | 43.19873 | 3256 ft | 210 kts | 102° |
| 2026-05-04 17:33 | -11.77273 | 43.21343 | 2968 ft | 203 kts | 79° |
| 2026-05-04 17:34 | -11.74397 | 43.23397 | 2795 ft | 181 kts | 12° |
| 2026-05-04 17:34 | -11.73137 | 43.23635 | 2918 ft | 185 kts | 12° |
| 2026-05-04 17:35 | -11.69310 | 43.24330 | 2915 ft | 187 kts | 11° |
| 2026-05-04 17:35 | -11.66764 | 43.24788 | 2467 ft | 186 kts | 11° |
| 2026-05-04 17:35 | -11.65497 | 43.25018 | 2223 ft | 184 kts | 12° |
| 2026-05-04 17:36 | -11.64237 | 43.25243 | 1980 ft | 182 kts | 11° |
| 2026-05-04 17:36 | -11.63002 | 43.25459 | 1734 ft | 171 kts | 11° |
| 2026-05-04 17:36 | -11.61929 | 43.25648 | 1514 ft | 145 kts | 11° |
| 2026-05-04 17:36 | -11.60988 | 43.25816 | 1331 ft | 133 kts | 11° |
| 2026-05-04 17:37 | -11.60090 | 43.25977 | 1163 ft | 130 kts | 11° |
| 2026-05-04 17:37 | -11.59199 | 43.26137 | 997 ft | 130 kts | 12° |
| 2026-05-04 17:37 | -11.58320 | 43.26295 | 831 ft | 130 kts | 12° |
| 2026-05-04 17:37 | -11.57428 | 43.26453 | 660 ft | 130 kts | 11° |
| 2026-05-04 17:38 | -11.56541 | 43.26616 | 488 ft | 129 kts | 11° |
| 2026-05-04 17:38 | -11.55661 | 43.26772 | 316 ft | 127 kts | 12° |
| 2026-05-04 17:38 | -11.54796 | 43.26935 | 162 ft | 125 kts | 11° |
| 2026-05-04 17:38 | -11.53961 | 43.27086 | 75 ft | 112 kts | 11° |
| 2026-05-04 17:39 | -11.53330 | 43.27191 | 81 ft | 11 kts | 222° |
| 2026-05-04 17:39 | -11.53503 | 43.27164 | 77 ft | 42 kts | 189° |
| 2026-05-04 17:39 | -11.53658 | 43.27175 | 70 ft | 16 kts | 92° |
| 2026-05-04 17:40 | -11.53691 | 43.27340 | 76 ft | 24 kts | 117° |
| 2026-05-04 17:40 | -11.53729 | 43.27373 | 76 ft | 0 kts | 171° |